createdAt,value
2022-10-20T00:01:28.982Z,101899.98
2022-10-20T00:03:57.756Z,101897.89
2022-10-20T00:06:33.736Z,101895.30
2022-10-20T00:09:03.310Z,101898.48
2022-10-20T00:11:32.204Z,101904.07
2022-10-20T00:14:02.156Z,101901.98
2022-10-20T00:16:32.541Z,101904.85
2022-10-20T00:19:00.428Z,101900.08
2022-10-20T00:21:29.523Z,101886.15
2022-10-20T00:24:00.368Z,101885.70
2022-10-20T00:26:29.574Z,101874.64
2022-10-20T00:28:58.055Z,101868.69
2022-10-20T00:31:26.748Z,101866.63
2022-10-20T00:33:54.868Z,101860.87
2022-10-20T00:36:24.181Z,101860.25
2022-10-20T00:38:52.924Z,101857.87
2022-10-20T00:41:22.287Z,101863.45
2022-10-20T00:43:58.901Z,101854.01
2022-10-20T00:46:34.915Z,101856.69
2022-10-20T00:49:07.516Z,101853.32
2022-10-20T00:51:36.016Z,101837.30
2022-10-20T00:54:14.892Z,101840.01
2022-10-20T00:56:45.251Z,101843.51
2022-10-20T00:59:17.498Z,101841.91
2022-10-20T01:01:46.268Z,101840.30
2022-10-20T01:04:14.105Z,101853.91
2022-10-20T01:06:41.740Z,101856.00
2022-10-20T01:09:10.000Z,101857.57
2022-10-20T01:12:01.670Z,101847.34
2022-10-20T01:14:48.344Z,101838.70
2022-10-20T01:17:32.758Z,101832.45
2022-10-20T01:20:22.160Z,101830.85
2022-10-20T01:23:14.266Z,101826.21
2022-10-20T01:26:09.095Z,101822.52
2022-10-20T01:28:56.805Z,101819.64
2022-10-20T01:31:46.202Z,101827.81
2022-10-20T01:34:28.837Z,101823.63
2022-10-20T01:37:07.818Z,101821.05
2022-10-20T01:39:43.947Z,101815.55
2022-10-20T01:42:25.493Z,101815.84
2022-10-20T01:44:57.997Z,101806.72
2022-10-20T01:47:28.120Z,101810.91
2022-10-20T01:49:58.150Z,101811.20
2022-10-20T01:52:28.467Z,101811.20
2022-10-20T01:54:56.126Z,101804.95
2022-10-20T01:57:35.720Z,101805.74
2022-10-20T02:00:06.525Z,101803.55
2022-10-20T02:03:15.610Z,101798.58
2022-10-20T02:06:19.970Z,101788.67
2022-10-20T02:08:52.028Z,101798.91
2022-10-20T02:11:32.053Z,101792.63
2022-10-20T02:14:00.877Z,101785.56
2022-10-20T02:16:35.545Z,101787.66
2022-10-20T02:19:04.995Z,101781.90
2022-10-20T02:21:32.731Z,101781.38
2022-10-20T02:24:04.929Z,101778.50
2022-10-20T02:26:35.107Z,101767.28
2022-10-20T02:29:11.644Z,101779.13
2022-10-20T02:31:39.378Z,101780.98
2022-10-20T02:34:07.379Z,101775.23
2022-10-20T02:36:40.688Z,101771.86
2022-10-20T02:39:09.083Z,101763.98
2022-10-20T02:41:36.775Z,101766.08
2022-10-20T02:44:05.078Z,101764.31
2022-10-20T02:46:32.717Z,101768.27
2022-10-20T02:49:00.390Z,101770.36
2022-10-20T02:51:28.062Z,101771.34
2022-10-20T02:53:55.989Z,101775.52
2022-10-20T02:56:25.432Z,101776.31
2022-10-20T02:58:55.379Z,101779.68
2022-10-20T03:01:23.614Z,101774.45
2022-10-20T03:03:51.296Z,101765.81
2022-10-20T03:06:18.984Z,101768.37
2022-10-20T03:08:46.725Z,101765.48
2022-10-20T03:11:14.413Z,101766.80
2022-10-20T03:13:42.113Z,101771.77
2022-10-20T03:16:09.813Z,101777.23
2022-10-20T03:18:37.419Z,101774.55
2022-10-20T03:21:05.043Z,101776.15
2022-10-20T03:23:32.694Z,101781.09
2022-10-20T03:26:08.399Z,101780.59
2022-10-20T03:28:36.088Z,101781.90
2022-10-20T03:31:03.762Z,101782.39
2022-10-20T03:33:31.510Z,101778.73
2022-10-20T03:35:59.125Z,101775.52
2022-10-20T03:38:26.778Z,101774.74
2022-10-20T03:40:54.544Z,101764.21
2022-10-20T03:43:22.175Z,101772.35
2022-10-20T03:45:49.797Z,101764.51
2022-10-20T03:48:17.879Z,101765.29
2022-10-20T03:50:45.513Z,101759.86
2022-10-20T03:53:14.193Z,101753.09
2022-10-20T03:55:41.812Z,101753.09
2022-10-20T03:58:09.434Z,101757.54
2022-10-20T04:00:37.036Z,101761.73
2022-10-20T04:03:04.901Z,101748.91
2022-10-20T04:05:32.517Z,101739.78
2022-10-20T04:08:00.128Z,101737.95
2022-10-20T04:10:27.739Z,101741.65
2022-10-20T04:13:02.205Z,101741.35
2022-10-20T04:15:29.916Z,101733.51
2022-10-20T04:17:57.596Z,101737.20
2022-10-20T04:20:25.566Z,101732.72
2022-10-20T04:22:53.225Z,101739.26
2022-10-20T04:25:21.203Z,101745.31
2022-10-20T04:27:48.874Z,101746.91
2022-10-20T04:30:16.592Z,101752.37
2022-10-20T04:32:44.235Z,101756.56
2022-10-20T04:35:11.840Z,101746.32
2022-10-20T04:37:39.853Z,101757.05
2022-10-20T04:40:08.195Z,101757.24
2022-10-20T04:42:35.891Z,101759.63
2022-10-20T04:45:03.608Z,101758.85
2022-10-20T04:47:35.575Z,101745.73
2022-10-20T04:50:03.349Z,101742.86
2022-10-20T04:52:31.150Z,101742.86
2022-10-20T04:54:58.819Z,101734.98
2022-10-20T04:57:26.566Z,101743.15
2022-10-20T04:59:54.210Z,101737.40
2022-10-20T05:02:21.880Z,101729.02
2022-10-20T05:04:49.488Z,101720.39
2022-10-20T05:07:17.849Z,101721.47
2022-10-20T05:09:45.438Z,101716.83
2022-10-20T05:12:15.984Z,101725.46
2022-10-20T05:14:43.617Z,101714.21
2022-10-20T05:17:11.216Z,101702.96
2022-10-20T05:19:38.879Z,101694.63
2022-10-20T05:22:06.460Z,101684.39
2022-10-20T05:24:34.193Z,101688.87
2022-10-20T05:27:01.875Z,101685.99
2022-10-20T05:29:29.735Z,101689.39
2022-10-20T05:31:57.497Z,101685.50
2022-10-20T05:34:25.340Z,101679.23
2022-10-20T05:36:55.129Z,101682.88
2022-10-20T05:39:22.829Z,101675.04
2022-10-20T05:41:50.502Z,101677.42
2022-10-20T05:44:18.105Z,101669.58
2022-10-20T05:46:45.741Z,101670.36
2022-10-20T05:49:18.667Z,101671.44
2022-10-20T05:51:47.948Z,101672.26
2022-10-20T05:54:16.353Z,101670.13
2022-10-20T05:56:44.713Z,101656.53
2022-10-20T05:59:13.124Z,101660.20
2022-10-20T06:01:49.193Z,101663.37
2022-10-20T06:04:19.400Z,101672.12
2022-10-20T06:06:48.362Z,101678.30
2022-10-20T06:09:16.107Z,101681.52
2022-10-20T06:11:43.742Z,101683.87
2022-10-20T06:14:12.116Z,101675.95
2022-10-20T06:16:40.150Z,101684.00
2022-10-20T06:21:37.451Z,101667.91
2022-10-20T06:24:06.710Z,101670.23
2022-10-20T06:26:39.552Z,101670.98
2022-10-20T06:29:10.811Z,101670.63
2022-10-20T06:31:41.417Z,101670.55
2022-10-20T06:34:13.821Z,101663.95
2022-10-20T06:36:43.228Z,101666.27
2022-10-20T06:39:15.447Z,101674.35
2022-10-20T06:41:43.902Z,101676.12
2022-10-20T06:44:11.522Z,101687.37
2022-10-20T06:46:39.679Z,101684.42
2022-10-20T06:49:09.134Z,101682.55
2022-10-20T06:51:37.213Z,101681.97
2022-10-20T06:54:05.456Z,101684.29
2022-10-20T06:56:35.373Z,101686.09
2022-10-20T06:59:03.843Z,101693.64
2022-10-20T07:01:34.515Z,101699.34
2022-10-20T07:04:06.090Z,101688.54
2022-10-20T07:06:42.549Z,101707.41
2022-10-20T07:09:15.052Z,101714.77
2022-10-20T07:11:43.403Z,101700.05
2022-10-20T07:14:13.979Z,101699.79
2022-10-20T07:16:42.102Z,101698.98
2022-10-20T07:19:09.835Z,101696.09
2022-10-20T07:21:40.187Z,101686.94
2022-10-20T07:24:10.503Z,101678.80
2022-10-20T07:26:40.338Z,101666.47
2022-10-20T07:29:08.287Z,101659.08
2022-10-20T07:31:47.800Z,101662.52
2022-10-20T07:34:27.463Z,101674.02
2022-10-20T07:36:56.834Z,101662.22
2022-10-20T07:39:24.997Z,101668.50
2022-10-20T07:41:52.678Z,101673.44
2022-10-20T07:44:20.777Z,101676.84
2022-10-20T07:46:48.474Z,101676.05
2022-10-20T07:52:03.815Z,101679.45
2022-10-20T07:54:31.825Z,101678.44
2022-10-20T07:56:59.469Z,101687.07
2022-10-20T07:59:27.139Z,101685.80
2022-10-20T08:01:56.299Z,101687.37
2022-10-20T08:04:26.674Z,101686.05
2022-10-20T08:06:54.339Z,101685.30
2022-10-20T08:09:21.962Z,101688.97
2022-10-20T08:11:52.816Z,101698.71
2022-10-20T08:14:23.151Z,101708.72
2022-10-20T08:16:52.612Z,101713.20
2022-10-20T08:19:39.812Z,101701.95
2022-10-20T08:22:07.486Z,101707.21
2022-10-20T08:24:35.230Z,101708.26
2022-10-20T08:27:03.411Z,101709.63
2022-10-20T08:29:31.310Z,101705.77
2022-10-20T08:31:58.953Z,101706.33
2022-10-20T08:34:26.887Z,101701.66
2022-10-20T08:36:54.497Z,101700.64
2022-10-20T08:42:07.452Z,101692.86
2022-10-20T08:44:37.606Z,101697.11
2022-10-20T08:47:15.336Z,101686.94
2022-10-20T08:49:45.778Z,101689.30
2022-10-20T08:52:16.455Z,101689.06
2022-10-20T08:54:44.533Z,101706.66
2022-10-20T08:57:28.728Z,101715.55
2022-10-20T09:00:20.101Z,101734.91
2022-10-20T09:02:50.172Z,101748.84
2022-10-20T09:05:22.414Z,101738.57
2022-10-20T09:07:51.149Z,101727.03
2022-10-20T09:10:42.795Z,101753.32
2022-10-20T09:13:24.677Z,101765.84
2022-10-20T09:16:04.901Z,101782.66
2022-10-20T09:18:34.164Z,101785.47
2022-10-20T09:21:06.644Z,101783.02
2022-10-20T09:23:46.738Z,101771.18
2022-10-20T09:26:30.903Z,101766.99
2022-10-20T09:29:14.634Z,101768.37
2022-10-20T09:31:55.475Z,101787.79
2022-10-20T09:34:30.322Z,101779.84
2022-10-20T09:37:04.510Z,101773.56
2022-10-20T09:39:56.036Z,101766.04
2022-10-20T09:42:30.170Z,101764.54
2022-10-20T09:45:13.067Z,101751.78
2022-10-20T09:47:45.097Z,101743.77
2022-10-20T09:50:27.941Z,101769.02
2022-10-20T09:52:56.607Z,101786.84
2022-10-20T09:55:32.927Z,101784.98
2022-10-20T09:58:04.784Z,101780.79
2022-10-20T10:00:38.353Z,101777.39
2022-10-20T10:03:22.628Z,101756.16
2022-10-20T10:05:52.963Z,101762.80
2022-10-20T10:08:22.879Z,101758.45
2022-10-20T10:11:05.922Z,101756.43
2022-10-20T10:13:41.985Z,101752.87
2022-10-20T10:16:12.909Z,101745.34
2022-10-20T10:18:43.316Z,101739.62
2022-10-20T10:21:18.334Z,101736.58
2022-10-20T10:24:01.557Z,101753.71
2022-10-20T10:26:49.003Z,101751.72
2022-10-20T10:29:25.887Z,101766.80
2022-10-20T10:31:57.830Z,101770.52
2022-10-20T10:34:39.970Z,101770.36
2022-10-20T10:37:10.355Z,101774.87
2022-10-20T10:39:38.086Z,101764.67
2022-10-20T10:42:27.017Z,101771.08
2022-10-20T10:45:12.933Z,101771.83
2022-10-20T10:47:46.811Z,101766.11
2022-10-20T10:50:40.552Z,101762.45
2022-10-20T10:53:11.100Z,101756.82
2022-10-20T10:56:03.742Z,101740.24
2022-10-20T10:58:58.132Z,101740.99
2022-10-20T11:01:34.394Z,101747.83
2022-10-20T11:04:01.969Z,101752.24
2022-10-20T11:06:35.207Z,101743.77
2022-10-20T11:09:24.559Z,101732.72
2022-10-20T11:12:07.125Z,101729.29
2022-10-20T11:15:33.228Z,101741.87
2022-10-20T11:18:25.310Z,101736.84
2022-10-20T11:21:34.086Z,101728.93
2022-10-20T11:24:15.412Z,101719.18
2022-10-20T11:26:47.007Z,101717.35
2022-10-20T11:29:21.732Z,101700.02
2022-10-20T11:32:10.050Z,101685.34
2022-10-20T11:34:44.485Z,101680.34
2022-10-20T11:37:20.981Z,101679.02
2022-10-20T11:40:04.546Z,101675.89
2022-10-20T11:43:16.937Z,101665.39
2022-10-20T11:45:56.946Z,101651.20
2022-10-20T11:48:32.703Z,101645.45
2022-10-20T11:51:30.616Z,101639.91
2022-10-20T11:53:58.246Z,101649.66
2022-10-20T11:56:51.522Z,101660.16
2022-10-20T11:59:41.281Z,101669.41
2022-10-20T12:02:24.136Z,101673.86
2022-10-20T12:04:57.601Z,101660.98
2022-10-20T12:07:43.876Z,101665.45
2022-10-20T12:10:29.286Z,101660.20
2022-10-20T12:13:07.698Z,101662.80
2022-10-20T12:15:45.326Z,101657.54
2022-10-20T12:18:25.598Z,101669.09
2022-10-20T12:20:57.371Z,101674.35
2022-10-20T12:23:46.711Z,101676.70
2022-10-20T12:26:35.502Z,101666.41
2022-10-20T12:29:31.637Z,101665.36
2022-10-20T12:32:27.121Z,101659.83
2022-10-20T12:34:57.660Z,101668.23
2022-10-20T12:37:25.236Z,101666.63
2022-10-20T12:39:54.775Z,101652.70
2022-10-20T12:42:29.108Z,101641.13
2022-10-20T12:45:09.754Z,101649.79
2022-10-20T12:47:38.852Z,101649.79
2022-10-20T12:50:30.892Z,101644.01
2022-10-20T12:53:20.397Z,101646.39
2022-10-20T12:55:58.175Z,101650.64
2022-10-20T12:58:35.150Z,101645.90
2022-10-20T13:01:06.986Z,101633.31
2022-10-20T13:03:47.813Z,101626.22
2022-10-20T13:06:24.507Z,101621.51
2022-10-20T13:09:04.427Z,101625.73
2022-10-20T13:11:38.750Z,101615.46
2022-10-20T13:14:28.487Z,101610.45
2022-10-20T13:17:22.779Z,101591.55
2022-10-20T13:20:00.461Z,101578.12
2022-10-20T13:22:41.856Z,101561.27
2022-10-20T13:25:35.802Z,101545.48
2022-10-20T13:28:15.835Z,101545.45
2022-10-20T13:30:55.617Z,101537.53
2022-10-20T13:34:02.475Z,101547.51
2022-10-20T13:36:50.258Z,101530.17
2022-10-20T13:39:38.058Z,101544.89
2022-10-20T13:42:43.261Z,101548.06
2022-10-20T13:45:46.589Z,101532.30
2022-10-20T13:48:35.878Z,101540.67
2022-10-20T13:51:07.903Z,101541.72
2022-10-20T13:53:40.926Z,101529.62
2022-10-20T13:56:09.682Z,101536.72
2022-10-20T13:58:37.406Z,101524.32
2022-10-20T14:01:07.219Z,101515.85
2022-10-20T14:03:44.588Z,101521.87
2022-10-20T14:06:30.250Z,101528.70
2022-10-20T14:08:59.544Z,101516.87
2022-10-20T14:11:31.764Z,101550.45
2022-10-20T14:14:02.433Z,101571.70
2022-10-20T14:16:32.839Z,101560.65
2022-10-20T14:19:06.361Z,101554.11
2022-10-20T14:21:50.476Z,101563.27
2022-10-20T14:24:26.927Z,101561.21
2022-10-20T14:26:55.921Z,101569.05
2022-10-20T14:29:25.552Z,101577.23
2022-10-20T14:31:53.593Z,101554.11
2022-10-20T14:34:24.261Z,101550.16
2022-10-20T14:36:54.049Z,101568.56
2022-10-20T14:39:32.354Z,101562.26
2022-10-20T14:42:01.822Z,101557.28
2022-10-20T14:44:31.669Z,101586.65
2022-10-20T14:47:06.385Z,101606.11
2022-10-20T14:49:39.794Z,101621.87
2022-10-20T14:52:21.713Z,101649.66
2022-10-20T14:54:51.978Z,101633.54
2022-10-20T14:57:20.139Z,101605.71
2022-10-20T14:59:50.619Z,101604.96
2022-10-20T15:02:27.470Z,101593.38
2022-10-20T15:04:55.491Z,101581.32
2022-10-20T15:07:36.035Z,101580.83
2022-10-20T15:10:07.080Z,101561.90
2022-10-20T15:12:43.675Z,101540.12
2022-10-20T15:15:11.249Z,101550.84
2022-10-20T15:17:42.259Z,101554.05
2022-10-20T15:20:36.325Z,101546.16
2022-10-20T15:23:09.942Z,101538.58
2022-10-20T15:25:59.117Z,101531.26
2022-10-20T15:28:39.913Z,101545.16
2022-10-20T15:31:28.871Z,101537.80
2022-10-20T15:33:58.033Z,101528.84
2022-10-20T15:36:39.076Z,101516.80
2022-10-20T15:39:09.803Z,101514.12
2022-10-20T15:41:38.016Z,101519.62
2022-10-20T15:44:16.248Z,101518.83
2022-10-20T15:46:46.088Z,101531.68
2022-10-20T15:49:14.703Z,101544.04
2022-10-20T15:51:45.784Z,101540.84
2022-10-20T15:54:19.081Z,101517.75
2022-10-20T15:56:46.867Z,101510.39
2022-10-20T15:59:14.886Z,101508.82
2022-10-20T16:01:42.613Z,101497.25
2022-10-20T16:04:23.455Z,101495.41
2022-10-20T16:06:58.850Z,101505.39
2022-10-20T16:09:26.977Z,101499.08
2022-10-20T16:11:54.697Z,101499.60
2022-10-20T16:14:22.285Z,101495.13
2022-10-20T16:16:49.958Z,101483.80
2022-10-20T16:19:17.625Z,101498.26
2022-10-20T16:21:45.273Z,101492.70
2022-10-20T16:24:12.992Z,101496.62
2022-10-20T16:26:40.702Z,101497.93
2022-10-20T16:29:08.334Z,101503.13
2022-10-20T16:31:36.031Z,101511.02
2022-10-20T16:34:03.692Z,101494.96
2022-10-20T16:36:31.323Z,101502.77
2022-10-20T16:38:59.051Z,101505.39
2022-10-20T16:41:26.698Z,101504.80
2022-10-20T16:43:57.488Z,101507.41
2022-10-20T16:46:27.194Z,101501.66
2022-10-20T16:48:58.232Z,101502.97
2022-10-20T16:51:25.927Z,101514.45
2022-10-20T16:53:57.354Z,101508.13
2022-10-20T16:56:27.836Z,101506.83
2022-10-20T16:58:55.459Z,101501.56
2022-10-20T17:01:23.930Z,101496.33
2022-10-20T17:03:53.742Z,101498.39
2022-10-20T17:06:24.208Z,101490.25
2022-10-20T17:08:52.710Z,101481.32
2022-10-20T17:11:27.088Z,101473.96
2022-10-20T17:13:55.357Z,101474.45
2022-10-20T17:16:35.088Z,101474.72
2022-10-20T17:19:04.144Z,101457.91
2022-10-20T17:21:33.081Z,101486.98
2022-10-20T17:24:01.750Z,101470.99
2022-10-20T17:26:33.750Z,101460.46
2022-10-20T17:29:02.903Z,101482.95
2022-10-20T17:31:31.281Z,101487.08
2022-10-20T17:34:00.431Z,101480.02
2022-10-20T17:36:29.548Z,101498.55
2022-10-20T17:39:03.795Z,101527.89
2022-10-20T17:41:31.651Z,101517.65
2022-10-20T17:44:03.166Z,101531.32
2022-10-20T17:46:31.222Z,101543.06
2022-10-20T17:48:58.888Z,101537.50
2022-10-20T17:51:30.341Z,101550.05
2022-10-20T17:54:01.327Z,101532.66
2022-10-20T17:56:36.545Z,101541.03
2022-10-20T17:59:06.713Z,101550.09
2022-10-20T18:01:40.502Z,101531.22
2022-10-20T18:04:13.833Z,101545.35
2022-10-20T18:06:42.513Z,101542.47
2022-10-20T18:09:13.107Z,101547.93
2022-10-20T18:11:44.018Z,101553.39
2022-10-20T18:14:11.742Z,101546.07
2022-10-20T18:16:41.167Z,101562.87
2022-10-20T18:19:10.156Z,101575.17
2022-10-20T18:21:38.452Z,101574.09
2022-10-20T18:24:08.933Z,101587.70
2022-10-20T18:26:38.266Z,101599.44
2022-10-20T18:29:07.966Z,101610.48
2022-10-20T18:31:37.322Z,101592.66
2022-10-20T18:34:12.146Z,101599.53
2022-10-20T18:36:43.566Z,101584.62
2022-10-20T18:39:14.691Z,101579.62
2022-10-20T18:41:44.111Z,101573.08
2022-10-20T18:44:15.176Z,101574.68
2022-10-20T18:46:43.307Z,101558.95
2022-10-20T18:49:14.592Z,101555.52
2022-10-20T18:51:42.571Z,101569.94
2022-10-20T18:54:10.344Z,101559.09
2022-10-20T18:56:38.118Z,101552.84
2022-10-20T18:59:09.405Z,101561.77
2022-10-20T19:01:39.894Z,101562.05
2022-10-20T19:04:10.243Z,101560.49
2022-10-20T19:06:43.025Z,101556.83
2022-10-20T19:09:17.088Z,101547.64
2022-10-20T19:11:45.763Z,101549.24
2022-10-20T19:14:14.616Z,101561.57
2022-10-20T19:16:44.268Z,101573.57
2022-10-20T19:19:12.096Z,101554.70
2022-10-20T19:21:40.162Z,101563.37
2022-10-20T19:24:16.857Z,101552.31
2022-10-20T19:29:46.548Z,101550.52
2022-10-20T19:32:14.324Z,101555.81
2022-10-20T19:34:42.382Z,101557.88
2022-10-20T19:37:10.565Z,101563.62
2022-10-20T19:39:41.327Z,101563.62
2022-10-20T19:42:10.321Z,101548.45
2022-10-20T19:44:38.974Z,101527.76
2022-10-20T19:47:07.487Z,101543.26
2022-10-20T19:49:36.859Z,101555.29
2022-10-20T19:52:05.033Z,101554.77
2022-10-20T19:54:32.827Z,101547.70
2022-10-20T19:57:00.768Z,101544.07
2022-10-20T19:59:28.469Z,101542.77
2022-10-20T20:01:56.134Z,101521.51
2022-10-20T20:04:24.048Z,101509.97
2022-10-20T20:06:52.076Z,101506.01
2022-10-20T20:09:19.955Z,101504.41
2022-10-20T20:11:47.682Z,101520.92
2022-10-20T20:14:18.848Z,101521.70
2022-10-20T20:16:47.913Z,101524.32
2022-10-20T20:19:17.385Z,101530.08
2022-10-20T20:21:45.679Z,101556.01
2022-10-20T20:24:14.499Z,101562.87
2022-10-20T20:26:42.319Z,101545.05
2022-10-20T20:29:11.036Z,101519.91
2022-10-20T20:31:38.652Z,101521.22
2022-10-20T20:34:06.582Z,101514.97
2022-10-20T20:36:35.936Z,101481.95
2022-10-20T20:39:03.593Z,101443.91
2022-10-20T20:41:32.248Z,101443.62
2022-10-20T20:44:04.108Z,101451.40
2022-10-20T20:46:34.706Z,101519.77
2022-10-20T20:49:03.132Z,101524.23
2022-10-20T20:51:34.404Z,101525.76
2022-10-20T20:54:03.175Z,101530.21
2022-10-20T20:56:30.925Z,101511.34
2022-10-20T20:58:58.558Z,101489.10
2022-10-20T21:01:28.529Z,101489.59
2022-10-20T21:03:58.575Z,101492.47
2022-10-20T21:07:00.016Z,101517.59
2022-10-20T21:09:15.167Z,101503.49
2022-10-20T21:11:44.031Z,101510.52
2022-10-20T21:14:11.697Z,101513.43
2022-10-20T21:16:39.657Z,101502.71
2022-10-20T21:19:10.686Z,101485.41
2022-10-20T21:21:51.362Z,101460.49
2022-10-20T21:24:19.321Z,101505.29
2022-10-20T21:26:47.029Z,101514.71
2022-10-20T21:29:14.687Z,101474.39
2022-10-20T21:31:42.396Z,101461.57
2022-10-20T21:34:11.888Z,101469.71
2022-10-20T21:36:41.225Z,101494.34
2022-10-20T21:39:12.695Z,101507.45
2022-10-20T21:41:41.029Z,101494.34
2022-10-20T21:44:09.819Z,101467.09
2022-10-20T21:46:48.225Z,101485.21
2022-10-20T21:49:19.703Z,101541.82
2022-10-20T21:51:51.093Z,101541.03
2022-10-20T21:56:55.035Z,101491.03
2022-10-20T21:59:25.233Z,101516.97
2022-10-20T22:01:55.576Z,101545.28
2022-10-20T22:04:26.327Z,101494.20
2022-10-20T22:06:54.749Z,101448.36
2022-10-20T22:09:23.363Z,101437.14
2022-10-20T22:11:53.423Z,101458.10
2022-10-20T22:14:21.111Z,101505.52
2022-10-20T22:16:48.789Z,101482.95
2022-10-20T22:19:22.580Z,101447.38
2022-10-20T22:21:51.949Z,101450.52
2022-10-20T22:24:21.578Z,101476.97
2022-10-20T22:26:50.066Z,101492.67
2022-10-20T22:29:17.744Z,101487.73
2022-10-20T22:31:45.488Z,101465.23
2022-10-20T22:34:13.586Z,101475.73
2022-10-20T22:36:41.878Z,101482.01
2022-10-20T22:39:09.998Z,101472.85
2022-10-20T22:41:37.931Z,101460.33
2022-10-20T22:44:07.385Z,101464.25
2022-10-20T22:46:35.459Z,101460.88
2022-10-20T22:49:03.876Z,101456.70
2022-10-20T22:51:31.569Z,101435.73
2022-10-20T22:54:00.094Z,101428.97
2022-10-20T22:56:27.754Z,101428.19
2022-10-20T22:58:56.033Z,101409.58
2022-10-20T23:01:24.794Z,101405.91
2022-10-20T23:03:52.987Z,101419.52
2022-10-20T23:06:24.799Z,101413.47
2022-10-20T23:08:55.709Z,101404.80
2022-10-20T23:11:23.808Z,101416.34
2022-10-20T23:13:52.337Z,101411.87
2022-10-20T23:16:20.308Z,101417.10
2022-10-20T23:18:48.648Z,101418.08
2022-10-20T23:21:16.733Z,101427.53
2022-10-20T23:23:45.552Z,101434.82
2022-10-20T23:26:13.573Z,101432.66
2022-10-20T23:28:41.290Z,101431.29
2022-10-20T23:31:11.657Z,101443.55
2022-10-20T23:33:40.676Z,101437.73
2022-10-20T23:36:08.553Z,101434.04
2022-10-20T23:38:36.445Z,101424.09
2022-10-20T23:41:04.646Z,101432.99
2022-10-20T23:43:32.702Z,101441.04
2022-10-20T23:46:00.785Z,101452.28
2022-10-20T23:48:28.918Z,101433.41
2022-10-20T23:50:56.675Z,101454.09
2022-10-20T23:53:25.208Z,101450.42
2022-10-20T23:55:53.010Z,101467.91
2022-10-20T23:58:24.283Z,101458.20
